.
WxDataArchive / Data Records for 2008-11-14
2008-11-13 November 2008 2008-11-15

Data Records for Friday, 14 November 2008

Time	Temp	Chill	HIndex	Humid	Dewpt	 Wind 	HiWind	WindDir	Rain 	Barom 
-----	----	-----	------	-----	-----	------	------	-------	-----	----- 
00:00	53.9	53.9	53.9	80	47.9	1	7	315	0.00	29.620 
00:05	54.1	54.1	54.1	80	48.1	2	9	248	0.00	29.628 
00:10	54.1	54.1	54.1	80	48.1	2	9	248	0.00	29.624 
00:15	54.2	54.2	54.2	79	47.8	2	7	225	0.00	29.622 
00:20	54.2	54.2	54.2	79	47.8	2	7	248	0.00	29.621 
00:25	54.4	54.4	54.4	78	47.7	3	9	248	0.00	29.622 
00:30	54.5	54.5	54.5	77	47.4	3	10	248	0.00	29.626 
00:35	54.5	54.5	54.5	77	47.4	2	7	270	0.00	29.622 
00:40	54.5	54.5	54.5	77	47.4	3	7	248	0.00	29.626 
00:45	54.7	54.7	54.7	77	47.6	2	6	248	0.00	29.622 
00:50	54.7	54.7	54.7	76	47.3	4	12	292	0.00	29.621 
00:55	54.8	54.8	54.8	75	47.0	4	12	248	0.00	29.628 
01:00	55.1	55.1	55.1	74	47.0	4	7	248	0.00	29.636 
01:05	55.1	55.1	55.1	74	47.0	3	10	248	0.00	29.642 
01:10	55.1	55.1	55.1	74	47.0	2	10	248	0.00	29.636 
01:15	55.0	55.0	55.0	74	46.9	2	7	248	0.00	29.633 
01:20	55.0	55.0	55.0	75	47.2	2	5	248	0.00	29.636 
01:25	54.8	54.8	54.8	75	47.0	1	4	248	0.00	29.632 
01:30	54.8	54.8	54.8	74	46.7	2	6	248	0.00	29.650 
01:35	54.8	54.8	54.8	74	46.7	2	9	248	0.00	29.647 
01:40	55.0	55.0	55.0	74	46.9	3	10	248	0.00	29.651 
01:45	55.0	55.0	55.0	74	46.9	4	7	248	0.00	29.649 
01:50	55.0	55.0	55.0	74	46.9	2	6	248	0.00	29.647 
01:55	54.8	54.8	54.8	75	47.0	3	9	248	0.00	29.652 
02:00	54.7	54.7	54.7	75	46.9	3	7	248	0.00	29.650 
02:05	54.5	54.5	54.5	76	47.1	3	10	248	0.00	29.638 
02:10	54.5	54.5	54.5	76	47.1	2	7	248	0.00	29.646 
02:15	54.4	54.4	54.4	77	47.3	1	4	248	0.00	29.635 
02:20	54.2	54.2	54.2	77	47.1	1	5	248	0.00	29.624 
02:25	54.2	54.2	54.2	77	47.1	2	6	248	0.00	29.634 
02:30	54.2	54.2	54.2	77	47.1	2	5	248	0.00	29.629 
02:35	54.2	54.2	54.2	77	47.1	2	5	248	0.00	29.634 
02:40	54.1	54.1	54.1	77	47.0	1	3	248	0.00	29.620 
02:45	54.1	54.1	54.1	78	47.4	2	7	248	0.00	29.622 
02:50	53.9	53.9	53.9	78	47.2	1	4	248	0.00	29.618 
02:55	53.9	53.9	53.9	78	47.2	1	7	248	0.00	29.619 
03:00	53.8	53.8	53.8	79	47.4	1	4	90	0.00	29.613 
03:05	53.6	53.6	53.6	79	47.2	1	4	90	0.00	29.610 
03:10	53.3	53.3	53.3	80	47.3	1	5	90	0.00	29.617 
03:15	53.2	53.2	53.2	80	47.2	1	3	22	0.00	29.615 
03:20	53.1	53.1	53.1	81	47.4	1	4	292	0.00	29.622 
03:25	53.1	53.1	53.1	81	47.4	1	3	248	0.00	29.621 
03:30	52.9	52.9	52.9	81	47.2	0	3	248	0.00	29.613 
03:35	52.8	52.8	52.8	82	47.5	1	4	248	0.00	29.611 
03:40	52.8	52.8	52.8	82	47.5	1	5	225	0.00	29.607 
03:45	52.8	52.8	52.8	82	47.5	0	3	90	0.00	29.607 
03:50	52.6	52.6	52.6	83	47.6	1	5	248	0.00	29.609 
03:55	52.8	52.8	52.8	83	47.8	1	4	248	0.00	29.616 
04:00	52.8	52.8	52.8	83	47.8	1	3	248	0.00	29.614 
04:05	52.6	52.6	52.6	83	47.6	1	3	270	0.00	29.613 
04:10	52.6	52.6	52.6	83	47.6	1	4	248	0.00	29.616 
04:15	52.5	52.5	52.5	83	47.5	0	3	248	0.00	29.623 
04:20	52.5	52.5	52.5	84	47.8	1	5	248	0.00	29.621 
04:25	52.5	52.5	52.5	84	47.8	1	5	248	0.00	29.617 
04:30	52.5	52.5	52.5	84	47.8	1	4	68	0.00	29.611 
04:35	52.3	52.3	52.3	84	47.6	2	6	248	0.00	29.613 
04:40	52.3	52.3	52.3	84	47.6	1	4	225	0.00	29.612 
04:45	52.3	52.3	52.3	85	47.9	1	3	248	0.00	29.609 
04:50	52.3	52.3	52.3	85	47.9	1	6	270	0.00	29.608 
04:55	52.3	52.3	52.3	85	47.9	1	4	68	0.00	29.605 
05:00	52.5	52.5	52.5	85	48.1	2	5	248	0.00	29.609 
05:05	52.5	52.5	52.5	85	48.1	1	4	248	0.00	29.609 
05:10	52.5	52.5	52.5	85	48.1	1	5	248	0.00	29.608 
05:15	52.5	52.5	52.5	85	48.1	1	5	225	0.00	29.608 
05:20	52.5	52.5	52.5	85	48.1	2	6	248	0.00	29.611 
05:25	52.5	52.5	52.5	85	48.1	1	10	225	0.00	29.612 
05:30	52.5	52.5	52.5	85	48.1	1	5	270	0.00	29.610 
05:35	52.5	52.5	52.5	85	48.1	2	7	248	0.00	29.611 
05:40	52.5	52.5	52.5	85	48.1	1	4	248	0.00	29.605 
05:45	52.3	52.3	52.3	85	47.9	1	7	248	0.00	29.601 
05:50	52.5	52.5	52.5	85	48.1	1	5	248	0.00	29.596 
05:55	52.5	52.5	52.5	85	48.1	2	5	248	0.00	29.607 
06:00	52.5	52.5	52.5	84	47.8	1	6	248	0.00	29.605 
06:05	52.5	52.5	52.5	84	47.8	1	6	248	0.00	29.606 
06:10	52.5	52.5	52.5	84	47.8	3	12	248	0.00	29.608 
06:15	52.5	52.5	52.5	84	47.8	2	6	248	0.00	29.601 
06:20	52.5	52.5	52.5	84	47.8	2	7	248	0.00	29.599 
06:25	52.5	52.5	52.5	83	47.5	2	6	248	0.00	29.605 
06:30	52.5	52.5	52.5	83	47.5	3	6	248	0.00	29.610 
06:35	52.6	52.6	52.6	83	47.6	1	7	248	0.00	29.608 
06:40	52.5	52.5	52.5	83	47.5	1	3	248	0.00	29.609 
06:45	52.5	52.5	52.5	83	47.5	1	5	248	0.00	29.605 
06:50	52.5	52.5	52.5	83	47.5	2	6	248	0.00	29.608 
06:55	52.5	52.5	52.5	82	47.2	2	5	248	0.00	29.608 
07:00	52.5	52.5	52.5	82	47.2	3	7	248	0.00	29.611 
07:05	52.5	52.5	52.5	82	47.2	1	6	248	0.00	29.610 
07:10	52.5	52.5	52.5	82	47.2	2	6	270	0.00	29.611 
07:15	52.5	52.5	52.5	82	47.2	1	5	248	0.00	29.608 
07:20	52.5	52.5	52.5	81	46.8	0	3	248	0.00	29.604 
07:25	52.3	52.3	52.3	82	47.0	0	3	248	0.00	29.592 
07:30	52.3	52.3	52.3	82	47.0	1	3	225	0.00	29.586 
07:35	52.2	52.2	52.2	82	46.9	0	3	225	0.00	29.592 
07:40	52.0	52.0	52.0	83	47.0	1	3	225	0.00	29.605 
07:45	52.0	52.0	52.0	83	47.0	0	2	225	0.00	29.610 
07:50	52.0	52.0	52.0	83	47.0	0	2	225	0.00	29.611 
07:55	51.9	51.9	51.9	83	46.9	1	5	248	0.00	29.610 
08:00	52.0	52.0	52.0	83	47.0	2	6	248	0.00	29.615 
08:05	52.0	52.0	52.0	83	47.0	1	6	248	0.00	29.622 
08:10	52.0	52.0	52.0	84	47.3	1	5	248	0.00	29.624 
08:15	52.0	52.0	52.0	84	47.3	1	6	248	0.00	29.626 
08:20	52.0	52.0	52.0	84	47.3	2	5	248	0.00	29.625 
08:25	52.0	52.0	52.0	84	47.3	2	7	248	0.00	29.626 
08:30	52.2	52.2	52.2	84	47.5	3	7	248	0.00	29.626 
08:35	52.2	52.2	52.2	84	47.5	2	9	248	0.00	29.625 
08:40	52.0	52.0	52.0	84	47.3	2	6	248	0.00	29.627 
08:45	52.0	52.0	52.0	84	47.3	2	6	248	0.00	29.627 
08:50	52.0	52.0	52.0	84	47.3	1	5	248	0.00	29.625 
08:55	52.0	52.0	52.0	85	47.6	2	6	248	0.00	29.629 
09:00	52.0	52.0	52.0	85	47.6	1	4	248	0.00	29.630 
09:05	52.0	52.0	52.0	85	47.6	2	6	248	0.00	29.630 
09:10	52.2	52.2	52.2	85	47.8	2	6	248	0.00	29.626 
09:15	52.2	52.2	52.2	85	47.8	2	7	248	0.00	29.626 
09:20	52.3	52.3	52.3	85	47.9	2	5	248	0.00	29.624 
09:25	52.3	52.3	52.3	85	47.9	3	9	248	0.00	29.623 
09:30	52.3	52.3	52.3	85	47.9	2	6	248	0.00	29.625 
09:35	52.3	52.3	52.3	85	47.9	1	5	248	0.00	29.628 
09:40	52.3	52.3	52.3	84	47.6	2	5	270	0.00	29.628 
09:45	52.3	52.3	52.3	84	47.6	2	6	248	0.00	29.631 
09:50	52.2	52.2	52.2	85	47.8	2	6	225	0.00	29.634 
09:55	52.2	52.2	52.2	85	47.8	1	5	248	0.00	29.635 
10:00	52.0	52.0	52.0	86	47.9	2	7	248	0.00	29.637 
10:05	51.9	51.9	51.9	87	48.2	1	6	248	0.00	29.637 
10:10	51.7	51.7	51.7	88	48.3	2	6	248	0.01	29.638 
10:15	51.6	51.6	51.6	88	48.2	3	7	248	0.00	29.638 
10:20	51.6	51.6	51.6	89	48.5	2	6	248	0.00	29.638 
10:25	51.4	51.4	51.4	90	48.6	2	6	248	0.00	29.640 
10:30	51.4	51.4	51.4	90	48.6	2	7	248	0.01	29.644 
10:35	51.3	51.3	51.3	91	48.8	2	6	248	0.00	29.648 
10:40	51.3	51.3	51.3	91	48.8	2	4	248	0.00	29.646 
10:45	51.3	51.3	51.3	92	49.1	1	5	248	0.01	29.649 
10:50	51.1	51.1	51.1	92	48.9	2	7	248	0.00	29.646 
10:55	51.1	51.1	51.1	92	48.9	2	6	248	0.00	29.650 
11:00	51.1	51.1	51.1	92	48.9	1	5	225	0.01	29.651 
11:05	51.1	51.1	51.1	92	48.9	2	7	248	0.00	29.647 
11:10	51.1	51.1	51.1	93	49.1	2	6	248	0.01	29.648 
11:15	51.1	51.1	51.1	93	49.1	2	6	248	0.00	29.647 
11:20	51.1	51.1	51.1	93	49.1	2	11	248	0.00	29.648 
11:25	51.1	51.1	51.1	93	49.1	2	5	248	0.00	29.644 
11:30	51.1	51.1	51.1	93	49.1	1	5	248	0.00	29.639 
11:35	51.1	51.1	51.1	93	49.1	1	5	248	0.01	29.640 
11:40	51.1	51.1	51.1	93	49.1	1	4	248	0.00	29.641 
11:45	51.3	51.3	51.3	93	49.3	2	5	248	0.00	29.642 
11:50	51.1	51.1	51.1	93	49.1	1	5	248	0.00	29.642 
11:55	51.1	51.1	51.1	93	49.1	1	4	248	0.00	29.641 
12:00	51.1	51.1	51.1	93	49.1	1	6	248	0.01	29.641 
12:05	51.1	51.1	51.1	93	49.1	1	6	248	0.01	29.637 
12:10	51.1	51.1	51.1	94	49.4	1	2	248	0.00	29.636 
12:15	51.1	51.1	51.1	94	49.4	2	7	248	0.01	29.636 
12:20	51.0	51.0	51.0	94	49.3	1	5	248	0.01	29.634 
12:25	51.0	51.0	51.0	94	49.3	1	4	248	0.01	29.631 
12:30	51.1	51.1	51.1	94	49.4	1	3	248	0.01	29.635 
12:35	51.1	51.1	51.1	94	49.4	0	3	270	0.00	29.636 
12:40	51.1	51.1	51.1	94	49.4	1	7	248	0.01	29.635 
12:45	51.1	51.1	51.1	94	49.4	2	5	248	0.00	29.631 
12:50	51.1	51.1	51.1	94	49.4	1	4	248	0.01	29.628 
12:55	51.1	51.1	51.1	95	49.7	1	5	248	0.00	29.624 
13:00	51.1	51.1	51.1	94	49.4	1	4	248	0.01	29.624 
13:05	51.1	51.1	51.1	95	49.7	1	4	248	0.00	29.623 
13:10	51.1	51.1	51.1	95	49.7	2	4	248	0.01	29.621 
13:15	51.1	51.1	51.1	95	49.7	1	4	248	0.00	29.621 
13:20	51.1	51.1	51.1	95	49.7	1	5	90	0.01	29.621 
13:25	51.3	51.3	51.3	95	49.9	1	3	248	0.00	29.620 
13:30	51.1	51.1	51.1	95	49.7	2	5	248	0.00	29.620 
13:35	51.3	51.3	51.3	95	49.9	1	4	248	0.01	29.619 
13:40	51.3	51.3	51.3	95	49.9	0	4	248	0.00	29.620 
13:45	51.4	51.4	51.4	95	50.0	1	5	248	0.00	29.618 
13:50	51.4	51.4	51.4	95	50.0	1	4	248	0.00	29.617 
13:55	51.6	51.6	51.6	95	50.2	1	3	248	0.01	29.617 
14:00	51.6	51.6	51.6	95	50.2	1	5	248	0.00	29.616 
14:05	51.6	51.6	51.6	95	50.2	1	6	248	0.00	29.616 
14:10	51.6	51.6	51.6	95	50.2	1	5	225	0.00	29.614 
14:15	51.6	51.6	51.6	95	50.2	1	4	248	0.00	29.615 
14:20	51.6	51.6	51.6	95	50.2	1	5	248	0.00	29.619 
14:25	51.6	51.6	51.6	95	50.2	2	5	248	0.00	29.620 
14:30	51.6	51.6	51.6	95	50.2	2	5	248	0.00	29.620 
14:35	51.6	51.6	51.6	95	50.2	2	6	225	0.01	29.619 
14:40	51.6	51.6	51.6	95	50.2	1	5	248	0.00	29.617 
14:45	51.7	51.7	51.7	95	50.3	1	5	248	0.00	29.618 
14:50	51.7	51.7	51.7	95	50.3	1	4	248	0.00	29.615 
14:55	51.7	51.7	51.7	95	50.3	0	2	292	0.00	29.609 
15:00	51.7	51.7	51.7	95	50.3	1	3	292	0.00	29.617 
15:05	51.9	51.9	51.9	95	50.5	0	3	248	0.00	29.620 
15:10	51.9	51.9	51.9	95	50.5	1	3	248	0.00	29.617 
15:15	51.9	51.9	51.9	95	50.5	1	4	248	0.00	29.621 
15:20	51.7	51.7	51.7	95	50.3	1	4	225	0.00	29.622 
15:25	51.7	51.7	51.7	95	50.3	1	4	248	0.00	29.626 
15:30	51.7	51.7	51.7	95	50.3	1	3	248	0.00	29.629 
15:35	51.7	51.7	51.7	95	50.3	1	4	248	0.00	29.635 
15:40	51.7	51.7	51.7	95	50.3	1	5	248	0.00	29.635 
15:45	51.7	51.7	51.7	95	50.3	0	3	248	0.00	29.631 
15:50	51.7	51.7	51.7	95	50.3	1	2	248	0.01	29.635 
15:55	51.7	51.7	51.7	95	50.3	1	4	248	0.00	29.637 
16:00	51.7	51.7	51.7	95	50.3	2	4	248	0.00	29.639 
16:05	51.7	51.7	51.7	95	50.3	1	5	248	0.00	29.640 
16:10	51.7	51.7	51.7	95	50.3	1	4	248	0.00	29.637 
16:15	51.7	51.7	51.7	95	50.3	1	4	248	0.00	29.639 
16:20	51.7	51.7	51.7	95	50.3	1	3	248	0.00	29.639 
16:25	51.9	51.9	51.9	95	50.5	1	5	248	0.00	29.644 
16:30	51.9	51.9	51.9	95	50.5	1	4	225	0.00	29.651 
16:35	51.7	51.7	51.7	95	50.3	2	5	248	0.00	29.653 
16:40	51.7	51.7	51.7	95	50.3	1	4	248	0.00	29.654 
16:45	51.7	51.7	51.7	95	50.3	2	5	248	0.00	29.654 
16:50	51.7	51.7	51.7	95	50.3	1	4	248	0.00	29.654 
16:55	51.7	51.7	51.7	95	50.3	1	5	248	0.00	29.656 
17:00	51.7	51.7	51.7	95	50.3	1	3	248	0.01	29.655 
17:05	51.7	51.7	51.7	95	50.3	0	3	225	0.00	29.654 
17:10	51.7	51.7	51.7	95	50.3	1	3	248	0.00	29.655 
17:15	51.7	51.7	51.7	95	50.3	1	3	248	0.00	29.656 
17:20	51.7	51.7	51.7	95	50.3	1	3	248	0.00	29.656 
17:25	51.7	51.7	51.7	95	50.3	1	4	248	0.00	29.655 
17:30	51.7	51.7	51.7	95	50.3	1	5	248	0.00	29.654 
17:35	51.7	51.7	51.7	95	50.3	1	3	248	0.00	29.654 
17:40	51.7	51.7	51.7	95	50.3	0	3	248	0.00	29.653 
17:45	51.7	51.7	51.7	95	50.3	0	2	248	0.01	29.654 
17:50	51.7	51.7	51.7	95	50.3	1	3	248	0.00	29.653 
17:55	51.7	51.7	51.7	95	50.3	0	2	248	0.00	29.654 
18:00	51.7	51.7	51.7	95	50.3	1	3	248	0.00	29.654 
18:05	51.7	51.7	51.7	95	50.3	1	3	248	0.00	29.658 
18:10	51.7	51.7	51.7	95	50.3	0	2	248	0.00	29.659 
18:15	51.7	51.7	51.7	96	50.6	0	1	248	0.00	29.655 
18:20	51.7	51.7	51.7	95	50.3	0	1	248	0.00	29.656 
18:25	51.7	51.7	51.7	95	50.3	0	3	248	0.00	29.654 
18:30	51.7	51.7	51.7	96	50.6	0	3	248	0.00	29.653 
18:35	51.7	51.7	51.7	96	50.6	0	1	248	0.00	29.654 
18:40	51.7	51.7	51.7	96	50.6	0	2	248	0.00	29.654 
18:45	51.7	51.7	51.7	96	50.6	1	4	248	0.00	29.661 
18:50	51.7	51.7	51.7	96	50.6	0	3	248	0.00	29.659 
18:55	51.7	51.7	51.7	96	50.6	0	2	248	0.00	29.658 
19:00	51.7	51.7	51.7	96	50.6	1	3	248	0.00	29.661 
19:05	51.7	51.7	51.7	96	50.6	1	4	248	0.00	29.658 
19:10	51.7	51.7	51.7	96	50.6	1	3	248	0.00	29.659 
19:15	51.7	51.7	51.7	96	50.6	1	3	248	0.00	29.664 
19:20	51.7	51.7	51.7	96	50.6	1	4	270	0.00	29.665 
19:25	51.7	51.7	51.7	96	50.6	0	3	248	0.00	29.656 
19:30	51.7	51.7	51.7	96	50.6	0	3	248	0.00	29.654 
19:35	51.6	51.6	51.6	96	50.5	0	1	248	0.00	29.650 
19:40	51.6	51.6	51.6	96	50.5	0	1	248	0.00	29.650 
19:45	51.6	51.6	51.6	96	50.5	0	1	248	0.00	29.654 
19:50	51.6	51.6	51.6	96	50.5	0	2	248	0.00	29.664 
19:55	51.6	51.6	51.6	96	50.5	0	2	248	0.00	29.664 
20:00	51.6	51.6	51.6	96	50.5	0	3	248	0.00	29.660 
20:05	51.6	51.6	51.6	96	50.5	0	1	248	0.00	29.660 
20:10	51.6	51.6	51.6	96	50.5	0	2	248	0.00	29.652 
20:15	51.6	51.6	51.6	96	50.5	0	1	248	0.00	29.650 
20:20	51.6	51.6	51.6	96	50.5	0	1	248	0.00	29.651 
20:25	51.4	51.4	51.4	96	50.3	0	1	248	0.00	29.649 
20:30	51.4	51.4	51.4	96	50.3	0	1	248	0.00	29.649 
20:35	51.4	51.4	51.4	96	50.3	0	1	248	0.00	29.654 
20:40	51.1	51.1	51.1	96	50.0	0	2	248	0.00	29.655 
20:45	50.8	50.8	50.8	96	49.7	0	1	338	0.00	29.659 
20:50	50.4	50.4	50.4	95	49.0	0	3	0	0.00	29.659 
20:55	49.9	49.9	49.9	95	48.5	1	4	22	0.00	29.656 
21:00	49.4	49.4	49.4	95	48.0	1	3	45	0.00	29.656 
21:05	49.1	49.1	49.1	95	47.7	0	2	45	0.00	29.659 
21:10	48.8	48.8	48.8	94	47.1	0	2	45	0.00	29.658 
21:15	48.6	48.6	48.6	94	47.0	0	2	45	0.00	29.661 
21:20	48.6	48.6	48.6	94	47.0	0	1	45	0.00	29.661 
21:25	48.5	48.5	48.5	94	46.9	0	1	45	0.00	29.663 
21:30	48.5	48.5	48.5	94	46.9	0	2	45	0.00	29.666 
21:35	48.5	48.5	48.5	94	46.9	0	1	45	0.00	29.668 
21:40	48.5	48.5	48.5	94	46.9	0	1	45	0.00	29.662 
21:45	48.5	48.5	48.5	94	46.9	0	2	45	0.00	29.660 
21:50	48.5	48.5	48.5	94	46.9	0	2	45	0.00	29.662 
21:55	48.3	48.3	48.3	94	46.7	0	1	45	0.00	29.662 
22:00	48.3	48.3	48.3	94	46.7	0	1	45	0.00	29.659 
22:05	48.3	48.3	48.3	94	46.7	0	1	45	0.00	29.659 
22:10	48.3	48.3	48.3	94	46.7	0	1	45	0.00	29.659 
22:15	48.3	48.3	48.3	94	46.7	0	1	45	0.00	29.659 
22:20	48.3	48.3	48.3	94	46.7	0	2	45	0.00	29.660 
22:25	48.3	48.3	48.3	94	46.7	0	4	45	0.00	29.661 
22:30	48.0	48.0	48.0	94	46.4	1	5	270	0.00	29.660 
22:35	47.9	47.9	47.9	94	46.3	1	3	0	0.00	29.660 
22:40	47.7	47.7	47.7	94	46.1	0	4	0	0.00	29.657 
22:45	47.4	47.4	47.4	94	45.8	1	5	315	0.00	29.652 
22:50	47.3	47.3	47.3	94	45.7	1	3	338	0.00	29.649 
22:55	47.1	47.1	47.1	94	45.5	1	4	338	0.00	29.646 
23:00	47.0	47.0	47.0	94	45.4	1	2	338	0.00	29.645 
23:05	47.0	47.0	47.0	94	45.4	1	4	22	0.00	29.644 
23:10	46.8	46.8	46.8	94	45.2	0	2	22	0.00	29.643 
23:15	46.8	46.8	46.8	94	45.2	0	3	0	0.00	29.642 
23:20	46.7	46.7	46.7	94	45.1	1	3	292	0.00	29.642 
23:25	46.5	46.5	46.5	94	44.9	1	4	292	0.00	29.637 
23:30	46.4	46.4	46.4	95	45.0	1	3	292	0.00	29.644 
23:35	46.2	46.2	46.2	94	44.6	1	3	292	0.00	29.641 
23:40	46.0	46.0	46.0	94	44.4	1	5	338	0.00	29.635 
23:45	45.8	45.8	45.8	94	44.2	1	5	338	0.00	29.634 
23:50	45.7	45.7	45.7	94	44.1	1	2	0	0.00	29.638 
23:55	45.4	45.4	45.4	94	43.8	1	5	338	0.00	29.643 

CoCoRaHS
IN-AL-39
A2 Web Hosting
Creative Commons License
GoDaddy
Look for:

loaded 2017-10-19 20:22:43 • last modified 2010-11-18 10:43:29
Privacy PolicyDisclaimer
• wx.awcolley.com is powered by PmWiki v.2002016 •
• all content (unless otherwise noted) © 2017 A W Colley